sensor_id;sensor_type;location;lat;lon;timestamp;P1;durP1;ratioP1;P2;durP2;ratioP2
73474;SDS011;61711;52.266;10.542;2022-12-18T00:02:13;41.45;;;18.40;;
73474;SDS011;61711;52.266;10.542;2022-12-18T00:04:39;39.72;;;18.77;;
73474;SDS011;61711;52.266;10.542;2022-12-18T00:07:05;39.47;;;17.70;;
73474;SDS011;61711;52.266;10.542;2022-12-18T00:09:31;42.83;;;18.85;;
73474;SDS011;61711;52.266;10.542;2022-12-18T00:11:57;38.70;;;17.50;;
73474;SDS011;61711;52.266;10.542;2022-12-18T00:14:23;38.30;;;16.77;;
73474;SDS011;61711;52.266;10.542;2022-12-18T00:16:49;39.55;;;17.42;;
73474;SDS011;61711;52.266;10.542;2022-12-18T00:19:15;43.65;;;18.95;;
73474;SDS011;61711;52.266;10.542;2022-12-18T00:21:44;45.30;;;19.23;;
73474;SDS011;61711;52.266;10.542;2022-12-18T00:24:10;41.33;;;17.92;;
73474;SDS011;61711;52.266;10.542;2022-12-18T00:26:37;35.63;;;16.38;;
73474;SDS011;61711;52.266;10.542;2022-12-18T00:29:05;37.60;;;16.83;;
73474;SDS011;61711;52.266;10.542;2022-12-18T00:31:31;39.50;;;16.85;;
73474;SDS011;61711;52.266;10.542;2022-12-18T00:33:57;37.40;;;16.35;;
73474;SDS011;61711;52.266;10.542;2022-12-18T00:36:27;39.97;;;16.95;;
73474;SDS011;61711;52.266;10.542;2022-12-18T00:38:54;39.85;;;17.40;;
73474;SDS011;61711;52.266;10.542;2022-12-18T00:41:21;36.95;;;16.00;;
73474;SDS011;61711;52.266;10.542;2022-12-18T00:44:06;43.17;;;17.67;;
73474;SDS011;61711;52.266;10.542;2022-12-18T00:46:33;40.25;;;17.92;;
73474;SDS011;61711;52.266;10.542;2022-12-18T00:48:59;40.95;;;18.27;;
73474;SDS011;61711;52.266;10.542;2022-12-18T00:51:25;42.50;;;17.73;;
73474;SDS011;61711;52.266;10.542;2022-12-18T00:53:51;39.47;;;17.63;;
73474;SDS011;61711;52.266;10.542;2022-12-18T00:56:20;38.55;;;16.05;;
73474;SDS011;61711;52.266;10.542;2022-12-18T00:58:46;41.80;;;16.73;;
73474;SDS011;61711;52.266;10.542;2022-12-18T01:01:12;38.63;;;17.40;;
73474;SDS011;61711;52.266;10.542;2022-12-18T01:03:38;35.33;;;16.45;;
73474;SDS011;61711;52.266;10.542;2022-12-18T01:06:08;35.25;;;16.15;;
73474;SDS011;61711;52.266;10.542;2022-12-18T01:08:35;36.10;;;15.80;;
73474;SDS011;61711;52.266;10.542;2022-12-18T01:11:07;38.60;;;16.50;;
73474;SDS011;61711;52.266;10.542;2022-12-18T01:13:33;40.28;;;16.23;;
73474;SDS011;61711;52.266;10.542;2022-12-18T01:15:59;37.00;;;16.48;;
73474;SDS011;61711;52.266;10.542;2022-12-18T01:18:25;36.15;;;16.98;;
73474;SDS011;61711;52.266;10.542;2022-12-18T01:20:51;40.05;;;17.05;;
73474;SDS011;61711;52.266;10.542;2022-12-18T01:23:17;38.97;;;17.02;;
73474;SDS011;61711;52.266;10.542;2022-12-18T01:25:43;34.00;;;16.13;;
73474;SDS011;61711;52.266;10.542;2022-12-18T01:28:09;38.13;;;16.23;;
73474;SDS011;61711;52.266;10.542;2022-12-18T01:30:36;38.67;;;17.52;;
73474;SDS011;61711;52.266;10.542;2022-12-18T01:33:03;45.00;;;17.50;;
73474;SDS011;61711;52.266;10.542;2022-12-18T01:35:29;37.75;;;17.02;;
73474;SDS011;61711;52.266;10.542;2022-12-18T01:37:55;37.47;;;17.00;;
73474;SDS011;61711;52.266;10.542;2022-12-18T01:40:21;41.58;;;17.65;;
73474;SDS011;61711;52.266;10.542;2022-12-18T01:42:51;39.17;;;16.88;;
73474;SDS011;61711;52.266;10.542;2022-12-18T01:47:47;42.30;;;17.58;;
73474;SDS011;61711;52.266;10.542;2022-12-18T01:50:15;38.00;;;16.33;;
73474;SDS011;61711;52.266;10.542;2022-12-18T01:52:42;41.22;;;16.73;;
73474;SDS011;61711;52.266;10.542;2022-12-18T01:55:09;39.97;;;16.38;;
73474;SDS011;61711;52.266;10.542;2022-12-18T01:57:36;41.22;;;17.92;;
73474;SDS011;61711;52.266;10.542;2022-12-18T02:00:06;36.03;;;16.23;;
73474;SDS011;61711;52.266;10.542;2022-12-18T02:02:33;45.03;;;18.58;;
73474;SDS011;61711;52.266;10.542;2022-12-18T02:04:59;37.80;;;16.33;;
73474;SDS011;61711;52.266;10.542;2022-12-18T02:07:35;38.72;;;17.17;;
73474;SDS011;61711;52.266;10.542;2022-12-18T02:10:06;38.53;;;16.85;;
73474;SDS011;61711;52.266;10.542;2022-12-18T02:12:35;38.03;;;16.33;;
73474;SDS011;61711;52.266;10.542;2022-12-18T02:15:27;43.35;;;17.00;;
73474;SDS011;61711;52.266;10.542;2022-12-18T02:17:56;40.15;;;17.17;;
73474;SDS011;61711;52.266;10.542;2022-12-18T02:20:25;41.88;;;17.45;;
73474;SDS011;61711;52.266;10.542;2022-12-18T02:22:58;42.42;;;17.42;;
73474;SDS011;61711;52.266;10.542;2022-12-18T02:25:37;39.03;;;16.67;;
73474;SDS011;61711;52.266;10.542;2022-12-18T02:30:37;37.13;;;15.80;;
73474;SDS011;61711;52.266;10.542;2022-12-18T02:33:06;36.05;;;15.65;;
73474;SDS011;61711;52.266;10.542;2022-12-18T02:35:33;37.88;;;15.63;;
73474;SDS011;61711;52.266;10.542;2022-12-18T02:38:00;33.15;;;15.70;;
73474;SDS011;61711;52.266;10.542;2022-12-18T02:40:27;38.00;;;15.32;;
73474;SDS011;61711;52.266;10.542;2022-12-18T02:42:54;40.08;;;15.82;;
73474;SDS011;61711;52.266;10.542;2022-12-18T02:45:20;35.70;;;16.33;;
73474;SDS011;61711;52.266;10.542;2022-12-18T02:47:47;39.92;;;16.33;;
73474;SDS011;61711;52.266;10.542;2022-12-18T02:58:15;38.42;;;15.88;;
73474;SDS011;61711;52.266;10.542;2022-12-18T03:03:24;36.75;;;15.38;;
73474;SDS011;61711;52.266;10.542;2022-12-18T03:06:02;35.83;;;15.48;;
73474;SDS011;61711;52.266;10.542;2022-12-18T03:08:31;32.53;;;15.35;;
73474;SDS011;61711;52.266;10.542;2022-12-18T03:11:00;36.13;;;15.85;;
73474;SDS011;61711;52.266;10.542;2022-12-18T03:15:57;32.15;;;15.27;;
73474;SDS011;61711;52.266;10.542;2022-12-18T03:18:25;35.53;;;15.35;;
73474;SDS011;61711;52.266;10.542;2022-12-18T03:20:55;40.95;;;16.23;;
73474;SDS011;61711;52.266;10.542;2022-12-18T03:23:24;36.42;;;14.60;;
73474;SDS011;61711;52.266;10.542;2022-12-18T03:25:54;33.92;;;16.00;;
73474;SDS011;61711;52.266;10.542;2022-12-18T03:28:22;36.78;;;14.85;;
73474;SDS011;61711;52.266;10.542;2022-12-18T03:30:50;31.35;;;14.77;;
73474;SDS011;61711;52.266;10.542;2022-12-18T03:33:19;35.08;;;14.88;;
73474;SDS011;61711;52.266;10.542;2022-12-18T03:35:45;36.13;;;16.45;;
73474;SDS011;61711;52.266;10.542;2022-12-18T03:38:12;37.85;;;15.90;;
73474;SDS011;61711;52.266;10.542;2022-12-18T03:40:41;30.02;;;14.23;;
73474;SDS011;61711;52.266;10.542;2022-12-18T03:43:10;34.58;;;14.90;;
73474;SDS011;61711;52.266;10.542;2022-12-18T03:45:38;33.15;;;14.20;;
73474;SDS011;61711;52.266;10.542;2022-12-18T03:48:14;35.47;;;14.80;;
73474;SDS011;61711;52.266;10.542;2022-12-18T03:50:45;33.40;;;15.20;;
73474;SDS011;61711;52.266;10.542;2022-12-18T03:55:57;34.45;;;14.95;;
73474;SDS011;61711;52.266;10.542;2022-12-18T03:58:24;31.55;;;14.30;;
73474;SDS011;61711;52.266;10.542;2022-12-18T04:00:51;33.22;;;14.30;;
73474;SDS011;61711;52.266;10.542;2022-12-18T04:03:18;33.33;;;13.98;;
73474;SDS011;61711;52.266;10.542;2022-12-18T04:05:45;32.30;;;14.10;;
73474;SDS011;61711;52.266;10.542;2022-12-18T04:08:12;33.05;;;14.40;;
73474;SDS011;61711;52.266;10.542;2022-12-18T04:10:38;33.08;;;14.13;;
73474;SDS011;61711;52.266;10.542;2022-12-18T04:13:04;34.13;;;14.95;;
73474;SDS011;61711;52.266;10.542;2022-12-18T04:15:31;29.77;;;13.95;;
73474;SDS011;61711;52.266;10.542;2022-12-18T04:17:59;29.00;;;13.95;;
73474;SDS011;61711;52.266;10.542;2022-12-18T04:20:25;31.40;;;14.88;;
73474;SDS011;61711;52.266;10.542;2022-12-18T04:22:53;32.65;;;13.77;;
73474;SDS011;61711;52.266;10.542;2022-12-18T04:25:19;36.40;;;14.63;;
73474;SDS011;61711;52.266;10.542;2022-12-18T04:27:45;32.53;;;14.23;;
73474;SDS011;61711;52.266;10.542;2022-12-18T04:30:11;34.90;;;15.40;;
73474;SDS011;61711;52.266;10.542;2022-12-18T04:32:37;37.25;;;15.10;;
73474;SDS011;61711;52.266;10.542;2022-12-18T04:35:04;36.17;;;14.40;;
73474;SDS011;61711;52.266;10.542;2022-12-18T04:37:32;33.63;;;14.07;;
73474;SDS011;61711;52.266;10.542;2022-12-18T04:39:58;35.75;;;15.40;;
73474;SDS011;61711;52.266;10.542;2022-12-18T04:42:24;32.47;;;13.63;;
73474;SDS011;61711;52.266;10.542;2022-12-18T04:44:50;34.65;;;15.90;;
73474;SDS011;61711;52.266;10.542;2022-12-18T04:47:16;37.08;;;14.65;;
73474;SDS011;61711;52.266;10.542;2022-12-18T04:49:42;35.72;;;14.15;;
73474;SDS011;61711;52.266;10.542;2022-12-18T04:52:08;37.47;;;15.27;;
73474;SDS011;61711;52.266;10.542;2022-12-18T04:54:34;30.48;;;13.23;;
73474;SDS011;61711;52.266;10.542;2022-12-18T04:57:00;33.67;;;14.55;;
73474;SDS011;61711;52.266;10.542;2022-12-18T04:59:26;35.70;;;15.00;;
73474;SDS011;61711;52.266;10.542;2022-12-18T05:01:52;32.83;;;13.90;;
73474;SDS011;61711;52.266;10.542;2022-12-18T05:04:18;37.08;;;14.35;;
73474;SDS011;61711;52.266;10.542;2022-12-18T05:06:44;37.70;;;15.55;;
73474;SDS011;61711;52.266;10.542;2022-12-18T05:09:10;37.47;;;13.85;;
73474;SDS011;61711;52.266;10.542;2022-12-18T05:11:36;37.10;;;15.43;;
73474;SDS011;61711;52.266;10.542;2022-12-18T05:14:02;32.58;;;14.00;;
73474;SDS011;61711;52.266;10.542;2022-12-18T05:16:28;38.30;;;14.82;;
73474;SDS011;61711;52.266;10.542;2022-12-18T05:18:54;35.08;;;14.50;;
73474;SDS011;61711;52.266;10.542;2022-12-18T05:21:20;36.53;;;15.32;;
73474;SDS011;61711;52.266;10.542;2022-12-18T05:23:46;33.05;;;14.50;;
73474;SDS011;61711;52.266;10.542;2022-12-18T05:26:14;36.92;;;15.10;;
73474;SDS011;61711;52.266;10.542;2022-12-18T05:28:40;32.75;;;14.15;;
73474;SDS011;61711;52.266;10.542;2022-12-18T05:31:06;32.15;;;14.48;;
73474;SDS011;61711;52.266;10.542;2022-12-18T05:33:33;35.92;;;14.48;;
73474;SDS011;61711;52.266;10.542;2022-12-18T05:36:03;33.10;;;13.10;;
73474;SDS011;61711;52.266;10.542;2022-12-18T05:38:30;34.22;;;13.52;;
73474;SDS011;61711;52.266;10.542;2022-12-18T05:40:56;33.60;;;13.50;;
73474;SDS011;61711;52.266;10.542;2022-12-18T05:43:23;37.90;;;13.70;;
73474;SDS011;61711;52.266;10.542;2022-12-18T05:45:49;29.83;;;12.80;;
73474;SDS011;61711;52.266;10.542;2022-12-18T05:48:16;35.00;;;13.18;;
73474;SDS011;61711;52.266;10.542;2022-12-18T05:50:42;32.25;;;13.05;;
73474;SDS011;61711;52.266;10.542;2022-12-18T05:53:10;33.13;;;13.07;;
73474;SDS011;61711;52.266;10.542;2022-12-18T05:55:37;31.10;;;13.05;;
73474;SDS011;61711;52.266;10.542;2022-12-18T05:58:03;34.70;;;14.35;;
73474;SDS011;61711;52.266;10.542;2022-12-18T06:00:30;33.63;;;13.90;;
73474;SDS011;61711;52.266;10.542;2022-12-18T06:02:57;31.80;;;13.38;;
73474;SDS011;61711;52.266;10.542;2022-12-18T06:05:23;32.50;;;13.25;;
73474;SDS011;61711;52.266;10.542;2022-12-18T06:07:49;33.95;;;13.77;;
73474;SDS011;61711;52.266;10.542;2022-12-18T06:10:15;34.03;;;14.38;;
73474;SDS011;61711;52.266;10.542;2022-12-18T06:12:41;31.33;;;14.23;;
73474;SDS011;61711;52.266;10.542;2022-12-18T06:15:07;32.30;;;13.52;;
73474;SDS011;61711;52.266;10.542;2022-12-18T06:17:33;35.45;;;12.73;;
73474;SDS011;61711;52.266;10.542;2022-12-18T06:19:59;34.00;;;12.93;;
73474;SDS011;61711;52.266;10.542;2022-12-18T06:22:26;35.33;;;13.20;;
73474;SDS011;61711;52.266;10.542;2022-12-18T06:24:52;31.25;;;13.35;;
73474;SDS011;61711;52.266;10.542;2022-12-18T06:27:18;28.90;;;13.13;;
73474;SDS011;61711;52.266;10.542;2022-12-18T06:29:45;31.25;;;12.77;;
73474;SDS011;61711;52.266;10.542;2022-12-18T06:32:11;28.55;;;12.50;;
73474;SDS011;61711;52.266;10.542;2022-12-18T06:34:37;34.97;;;14.35;;
73474;SDS011;61711;52.266;10.542;2022-12-18T06:37:03;35.38;;;13.45;;
73474;SDS011;61711;52.266;10.542;2022-12-18T06:39:29;33.10;;;14.00;;
73474;SDS011;61711;52.266;10.542;2022-12-18T06:41:55;32.17;;;12.63;;
73474;SDS011;61711;52.266;10.542;2022-12-18T06:44:21;34.22;;;13.52;;
73474;SDS011;61711;52.266;10.542;2022-12-18T06:46:47;32.65;;;12.95;;
73474;SDS011;61711;52.266;10.542;2022-12-18T06:49:13;34.38;;;13.95;;
73474;SDS011;61711;52.266;10.542;2022-12-18T06:51:41;33.28;;;12.85;;
73474;SDS011;61711;52.266;10.542;2022-12-18T06:54:07;33.75;;;13.48;;
73474;SDS011;61711;52.266;10.542;2022-12-18T06:56:33;34.22;;;14.20;;
73474;SDS011;61711;52.266;10.542;2022-12-18T06:58:59;36.45;;;12.27;;
73474;SDS011;61711;52.266;10.542;2022-12-18T07:01:25;34.78;;;13.48;;
73474;SDS011;61711;52.266;10.542;2022-12-18T07:03:52;32.03;;;12.80;;
73474;SDS011;61711;52.266;10.542;2022-12-18T07:06:20;31.10;;;13.38;;
73474;SDS011;61711;52.266;10.542;2022-12-18T07:08:46;35.33;;;13.70;;
73474;SDS011;61711;52.266;10.542;2022-12-18T07:11:12;31.20;;;13.15;;
73474;SDS011;61711;52.266;10.542;2022-12-18T07:13:38;37.03;;;14.25;;
73474;SDS011;61711;52.266;10.542;2022-12-18T07:16:25;34.92;;;12.85;;
73474;SDS011;61711;52.266;10.542;2022-12-18T07:18:50;35.38;;;13.45;;
73474;SDS011;61711;52.266;10.542;2022-12-18T07:21:17;34.38;;;13.52;;
73474;SDS011;61711;52.266;10.542;2022-12-18T07:23:44;36.53;;;14.18;;
73474;SDS011;61711;52.266;10.542;2022-12-18T07:26:13;32.75;;;14.27;;
73474;SDS011;61711;52.266;10.542;2022-12-18T07:28:39;35.08;;;13.95;;
73474;SDS011;61711;52.266;10.542;2022-12-18T07:31:06;38.20;;;14.10;;
73474;SDS011;61711;52.266;10.542;2022-12-18T07:33:33;34.17;;;14.13;;
73474;SDS011;61711;52.266;10.542;2022-12-18T07:36:02;32.20;;;12.90;;
73474;SDS011;61711;52.266;10.542;2022-12-18T07:38:29;35.85;;;13.75;;
73474;SDS011;61711;52.266;10.542;2022-12-18T07:40:59;39.00;;;14.48;;
73474;SDS011;61711;52.266;10.542;2022-12-18T07:43:25;30.98;;;13.20;;
73474;SDS011;61711;52.266;10.542;2022-12-18T07:45:51;39.55;;;14.85;;
73474;SDS011;61711;52.266;10.542;2022-12-18T07:48:17;37.70;;;14.57;;
73474;SDS011;61711;52.266;10.542;2022-12-18T07:50:43;35.00;;;14.02;;
73474;SDS011;61711;52.266;10.542;2022-12-18T07:53:09;32.65;;;13.38;;
73474;SDS011;61711;52.266;10.542;2022-12-18T07:55:35;33.83;;;13.38;;
73474;SDS011;61711;52.266;10.542;2022-12-18T07:58:02;34.53;;;13.88;;
73474;SDS011;61711;52.266;10.542;2022-12-18T08:00:28;33.47;;;14.00;;
73474;SDS011;61711;52.266;10.542;2022-12-18T08:02:54;36.25;;;14.20;;
73474;SDS011;61711;52.266;10.542;2022-12-18T08:05:20;33.05;;;13.43;;
73474;SDS011;61711;52.266;10.542;2022-12-18T08:07:47;40.40;;;14.15;;
73474;SDS011;61711;52.266;10.542;2022-12-18T08:10:13;30.83;;;12.35;;
73474;SDS011;61711;52.266;10.542;2022-12-18T08:12:39;39.03;;;14.00;;
73474;SDS011;61711;52.266;10.542;2022-12-18T08:15:05;32.75;;;13.52;;
73474;SDS011;61711;52.266;10.542;2022-12-18T08:17:31;35.83;;;13.55;;
73474;SDS011;61711;52.266;10.542;2022-12-18T08:19:57;30.85;;;13.35;;
73474;SDS011;61711;52.266;10.542;2022-12-18T08:22:23;35.25;;;13.30;;
73474;SDS011;61711;52.266;10.542;2022-12-18T08:24:49;33.00;;;13.00;;
73474;SDS011;61711;52.266;10.542;2022-12-18T08:27:15;32.40;;;13.77;;
73474;SDS011;61711;52.266;10.542;2022-12-18T08:29:41;35.47;;;13.77;;
73474;SDS011;61711;52.266;10.542;2022-12-18T08:32:07;36.28;;;13.52;;
73474;SDS011;61711;52.266;10.542;2022-12-18T08:34:33;67.53;;;25.00;;
73474;SDS011;61711;52.266;10.542;2022-12-18T08:36:59;37.53;;;14.50;;
73474;SDS011;61711;52.266;10.542;2022-12-18T08:39:25;31.23;;;12.23;;
73474;SDS011;61711;52.266;10.542;2022-12-18T08:41:51;31.83;;;13.65;;
73474;SDS011;61711;52.266;10.542;2022-12-18T08:44:36;32.70;;;12.60;;
73474;SDS011;61711;52.266;10.542;2022-12-18T08:47:02;33.70;;;12.38;;
73474;SDS011;61711;52.266;10.542;2022-12-18T08:49:28;28.65;;;11.88;;
73474;SDS011;61711;52.266;10.542;2022-12-18T08:51:55;34.65;;;12.48;;
73474;SDS011;61711;52.266;10.542;2022-12-18T08:54:22;31.67;;;11.45;;
73474;SDS011;61711;52.266;10.542;2022-12-18T08:56:48;31.08;;;11.95;;
73474;SDS011;61711;52.266;10.542;2022-12-18T08:59:15;31.05;;;12.40;;
73474;SDS011;61711;52.266;10.542;2022-12-18T09:01:41;35.60;;;12.02;;
73474;SDS011;61711;52.266;10.542;2022-12-18T09:04:08;36.67;;;12.32;;
73474;SDS011;61711;52.266;10.542;2022-12-18T09:06:34;35.33;;;13.43;;
73474;SDS011;61711;52.266;10.542;2022-12-18T09:09:00;37.20;;;12.73;;
73474;SDS011;61711;52.266;10.542;2022-12-18T09:11:27;30.85;;;12.45;;
73474;SDS011;61711;52.266;10.542;2022-12-18T09:13:54;35.83;;;13.40;;
73474;SDS011;61711;52.266;10.542;2022-12-18T09:16:21;30.83;;;12.63;;
73474;SDS011;61711;52.266;10.542;2022-12-18T09:18:48;32.67;;;12.70;;
73474;SDS011;61711;52.266;10.542;2022-12-18T09:21:18;32.92;;;13.30;;
73474;SDS011;61711;52.266;10.542;2022-12-18T09:23:52;34.03;;;12.95;;
73474;SDS011;61711;52.266;10.542;2022-12-18T09:26:18;29.83;;;12.65;;
73474;SDS011;61711;52.266;10.542;2022-12-18T09:28:44;31.60;;;13.23;;
73474;SDS011;61711;52.266;10.542;2022-12-18T09:31:11;31.90;;;12.68;;
73474;SDS011;61711;52.266;10.542;2022-12-18T09:33:37;32.60;;;12.52;;
73474;SDS011;61711;52.266;10.542;2022-12-18T09:36:04;31.77;;;12.38;;
73474;SDS011;61711;52.266;10.542;2022-12-18T09:38:30;30.83;;;11.57;;
73474;SDS011;61711;52.266;10.542;2022-12-18T09:40:58;25.60;;;10.77;;
73474;SDS011;61711;52.266;10.542;2022-12-18T09:45:51;29.83;;;12.25;;
73474;SDS011;61711;52.266;10.542;2022-12-18T09:48:25;26.25;;;10.48;;
73474;SDS011;61711;52.266;10.542;2022-12-18T09:50:52;32.13;;;12.68;;
73474;SDS011;61711;52.266;10.542;2022-12-18T09:53:22;31.70;;;11.82;;
73474;SDS011;61711;52.266;10.542;2022-12-18T09:55:50;26.35;;;11.70;;
73474;SDS011;61711;52.266;10.542;2022-12-18T10:00:43;26.23;;;10.73;;
73474;SDS011;61711;52.266;10.542;2022-12-18T10:03:09;25.77;;;10.93;;
73474;SDS011;61711;52.266;10.542;2022-12-18T10:05:37;26.63;;;11.15;;
73474;SDS011;61711;52.266;10.542;2022-12-18T10:13:02;28.90;;;11.68;;
73474;SDS011;61711;52.266;10.542;2022-12-18T10:15:40;25.38;;;10.45;;
73474;SDS011;61711;52.266;10.542;2022-12-18T10:20:51;25.23;;;11.23;;
73474;SDS011;61711;52.266;10.542;2022-12-18T10:25:53;23.55;;;10.25;;
73474;SDS011;61711;52.266;10.542;2022-12-18T10:28:20;24.00;;;11.27;;
73474;SDS011;61711;52.266;10.542;2022-12-18T10:30:46;48.88;;;19.42;;
73474;SDS011;61711;52.266;10.542;2022-12-18T10:33:16;32.25;;;12.75;;
73474;SDS011;61711;52.266;10.542;2022-12-18T10:35:42;26.40;;;11.35;;
73474;SDS011;61711;52.266;10.542;2022-12-18T10:40:57;20.38;;;9.52;;
73474;SDS011;61711;52.266;10.542;2022-12-18T10:43:45;20.60;;;9.15;;
73474;SDS011;61711;52.266;10.542;2022-12-18T10:48:55;25.70;;;11.02;;
73474;SDS011;61711;52.266;10.542;2022-12-18T10:53:55;28.40;;;11.30;;
73474;SDS011;61711;52.266;10.542;2022-12-18T10:56:21;26.27;;;11.13;;
73474;SDS011;61711;52.266;10.542;2022-12-18T10:59:00;27.15;;;11.65;;
73474;SDS011;61711;52.266;10.542;2022-12-18T11:01:26;26.40;;;12.00;;
73474;SDS011;61711;52.266;10.542;2022-12-18T11:06:20;26.80;;;12.13;;
73474;SDS011;61711;52.266;10.542;2022-12-18T11:11:34;29.00;;;11.82;;
73474;SDS011;61711;52.266;10.542;2022-12-18T11:14:04;31.90;;;13.00;;
73474;SDS011;61711;52.266;10.542;2022-12-18T11:16:42;28.95;;;12.63;;
73474;SDS011;61711;52.266;10.542;2022-12-18T11:19:12;27.98;;;12.85;;
73474;SDS011;61711;52.266;10.542;2022-12-18T11:21:41;27.88;;;11.95;;
73474;SDS011;61711;52.266;10.542;2022-12-18T11:24:14;26.05;;;12.70;;
73474;SDS011;61711;52.266;10.542;2022-12-18T11:26:43;27.35;;;12.05;;
73474;SDS011;61711;52.266;10.542;2022-12-18T11:29:10;26.15;;;11.80;;
73474;SDS011;61711;52.266;10.542;2022-12-18T11:31:42;27.98;;;12.38;;
73474;SDS011;61711;52.266;10.542;2022-12-18T11:34:16;29.65;;;12.73;;
73474;SDS011;61711;52.266;10.542;2022-12-18T11:36:46;29.27;;;12.25;;
73474;SDS011;61711;52.266;10.542;2022-12-18T11:39:15;23.92;;;12.25;;
73474;SDS011;61711;52.266;10.542;2022-12-18T11:41:53;20.33;;;11.00;;
73474;SDS011;61711;52.266;10.542;2022-12-18T11:44:44;25.10;;;11.07;;
73474;SDS011;61711;52.266;10.542;2022-12-18T11:47:27;23.48;;;9.88;;
73474;SDS011;61711;52.266;10.542;2022-12-18T11:49:58;21.52;;;10.10;;
73474;SDS011;61711;52.266;10.542;2022-12-18T11:52:26;22.70;;;11.02;;
73474;SDS011;61711;52.266;10.542;2022-12-18T11:54:55;19.67;;;8.48;;
73474;SDS011;61711;52.266;10.542;2022-12-18T12:07:40;19.30;;;9.13;;
73474;SDS011;61711;52.266;10.542;2022-12-18T12:10:24;19.23;;;9.43;;
73474;SDS011;61711;52.266;10.542;2022-12-18T12:13:09;19.13;;;8.77;;
73474;SDS011;61711;52.266;10.542;2022-12-18T12:20:59;18.60;;;8.80;;
73474;SDS011;61711;52.266;10.542;2022-12-18T12:26:10;18.15;;;9.80;;
73474;SDS011;61711;52.266;10.542;2022-12-18T12:31:25;17.08;;;9.07;;
73474;SDS011;61711;52.266;10.542;2022-12-18T12:33:56;20.33;;;9.75;;
73474;SDS011;61711;52.266;10.542;2022-12-18T12:36:49;19.17;;;10.13;;
73474;SDS011;61711;52.266;10.542;2022-12-18T12:39:16;17.70;;;9.45;;
73474;SDS011;61711;52.266;10.542;2022-12-18T12:41:43;21.27;;;10.18;;
73474;SDS011;61711;52.266;10.542;2022-12-18T12:44:34;17.75;;;9.48;;
73474;SDS011;61711;52.266;10.542;2022-12-18T12:47:12;20.75;;;9.55;;
73474;SDS011;61711;52.266;10.542;2022-12-18T12:49:39;16.95;;;8.80;;
73474;SDS011;61711;52.266;10.542;2022-12-18T12:52:07;18.50;;;9.13;;
73474;SDS011;61711;52.266;10.542;2022-12-18T12:54:36;19.00;;;9.57;;
73474;SDS011;61711;52.266;10.542;2022-12-18T12:57:05;20.73;;;9.13;;
73474;SDS011;61711;52.266;10.542;2022-12-18T12:59:49;15.70;;;8.00;;
73474;SDS011;61711;52.266;10.542;2022-12-18T13:04:47;16.52;;;7.97;;
73474;SDS011;61711;52.266;10.542;2022-12-18T13:07:35;15.25;;;7.60;;
73474;SDS011;61711;52.266;10.542;2022-12-18T13:15:23;12.80;;;6.78;;
73474;SDS011;61711;52.266;10.542;2022-12-18T13:18:23;14.48;;;7.07;;
73474;SDS011;61711;52.266;10.542;2022-12-18T13:20:50;14.32;;;7.20;;
73474;SDS011;61711;52.266;10.542;2022-12-18T13:25:45;14.57;;;7.18;;
73474;SDS011;61711;52.266;10.542;2022-12-18T13:28:15;15.00;;;7.20;;
73474;SDS011;61711;52.266;10.542;2022-12-18T13:30:42;15.88;;;7.22;;
73474;SDS011;61711;52.266;10.542;2022-12-18T13:38:45;17.10;;;8.45;;
73474;SDS011;61711;52.266;10.542;2022-12-18T13:43:35;17.67;;;9.07;;
73474;SDS011;61711;52.266;10.542;2022-12-18T13:46:06;19.38;;;9.13;;
73474;SDS011;61711;52.266;10.542;2022-12-18T13:48:43;21.08;;;10.43;;
73474;SDS011;61711;52.266;10.542;2022-12-18T13:51:15;22.33;;;10.50;;
73474;SDS011;61711;52.266;10.542;2022-12-18T13:53:53;25.48;;;11.27;;
73474;SDS011;61711;52.266;10.542;2022-12-18T13:56:43;24.42;;;11.90;;
73474;SDS011;61711;52.266;10.542;2022-12-18T14:01:48;30.13;;;14.00;;
73474;SDS011;61711;52.266;10.542;2022-12-18T14:09:57;25.52;;;12.57;;
73474;SDS011;61711;52.266;10.542;2022-12-18T14:12:25;29.02;;;13.57;;
73474;SDS011;61711;52.266;10.542;2022-12-18T14:15:20;27.90;;;13.35;;
73474;SDS011;61711;52.266;10.542;2022-12-18T14:17:49;32.42;;;14.48;;
73474;SDS011;61711;52.266;10.542;2022-12-18T14:20:16;28.95;;;13.52;;
73474;SDS011;61711;52.266;10.542;2022-12-18T14:22:45;27.38;;;12.85;;
73474;SDS011;61711;52.266;10.542;2022-12-18T14:27:42;27.65;;;13.50;;
73474;SDS011;61711;52.266;10.542;2022-12-18T14:30:23;25.88;;;13.00;;
73474;SDS011;61711;52.266;10.542;2022-12-18T14:33:05;28.10;;;12.07;;
73474;SDS011;61711;52.266;10.542;2022-12-18T14:35:35;25.20;;;11.60;;
73474;SDS011;61711;52.266;10.542;2022-12-18T14:38:19;22.48;;;11.85;;
73474;SDS011;61711;52.266;10.542;2022-12-18T14:40:47;23.63;;;11.55;;
73474;SDS011;61711;52.266;10.542;2022-12-18T14:43:13;23.88;;;10.88;;
73474;SDS011;61711;52.266;10.542;2022-12-18T14:45:39;25.88;;;11.18;;
73474;SDS011;61711;52.266;10.542;2022-12-18T14:48:07;28.17;;;12.95;;
73474;SDS011;61711;52.266;10.542;2022-12-18T14:50:33;24.38;;;11.75;;
73474;SDS011;61711;52.266;10.542;2022-12-18T14:52:59;24.45;;;11.70;;
73474;SDS011;61711;52.266;10.542;2022-12-18T14:55:25;27.60;;;12.55;;
73474;SDS011;61711;52.266;10.542;2022-12-18T14:57:52;24.38;;;12.18;;
73474;SDS011;61711;52.266;10.542;2022-12-18T15:00:20;30.90;;;13.63;;
73474;SDS011;61711;52.266;10.542;2022-12-18T15:02:47;25.88;;;13.07;;
73474;SDS011;61711;52.266;10.542;2022-12-18T15:07:44;28.35;;;12.25;;
73474;SDS011;61711;52.266;10.542;2022-12-18T15:10:12;22.85;;;12.60;;
73474;SDS011;61711;52.266;10.542;2022-12-18T15:12:39;25.15;;;13.30;;
73474;SDS011;61711;52.266;10.542;2022-12-18T15:18:26;29.33;;;11.30;;
73474;SDS011;61711;52.266;10.542;2022-12-18T15:21:07;21.30;;;9.77;;
73474;SDS011;61711;52.266;10.542;2022-12-18T15:23:35;26.85;;;10.82;;
73474;SDS011;61711;52.266;10.542;2022-12-18T15:31:00;19.13;;;8.55;;
73474;SDS011;61711;52.266;10.542;2022-12-18T15:33:27;21.60;;;9.32;;
73474;SDS011;61711;52.266;10.542;2022-12-18T15:35:56;19.23;;;9.20;;
73474;SDS011;61711;52.266;10.542;2022-12-18T15:38:22;20.42;;;9.27;;
73474;SDS011;61711;52.266;10.542;2022-12-18T15:40:48;18.73;;;8.73;;
73474;SDS011;61711;52.266;10.542;2022-12-18T15:43:14;25.08;;;9.68;;
73474;SDS011;61711;52.266;10.542;2022-12-18T15:46:00;21.02;;;9.77;;
73474;SDS011;61711;52.266;10.542;2022-12-18T15:48:26;16.83;;;8.55;;
73474;SDS011;61711;52.266;10.542;2022-12-18T15:50:53;20.13;;;9.13;;
73474;SDS011;61711;52.266;10.542;2022-12-18T15:53:20;21.45;;;8.93;;
73474;SDS011;61711;52.266;10.542;2022-12-18T15:55:46;19.35;;;9.77;;
73474;SDS011;61711;52.266;10.542;2022-12-18T15:58:31;20.92;;;9.50;;
73474;SDS011;61711;52.266;10.542;2022-12-18T16:00:58;20.02;;;10.20;;
73474;SDS011;61711;52.266;10.542;2022-12-18T16:03:25;23.00;;;10.68;;
73474;SDS011;61711;52.266;10.542;2022-12-18T16:05:51;22.67;;;10.57;;
73474;SDS011;61711;52.266;10.542;2022-12-18T16:08:17;21.73;;;10.35;;
73474;SDS011;61711;52.266;10.542;2022-12-18T16:10:43;21.67;;;11.30;;